createdAt,value
2023-02-19T00:02:28.527Z,13.20
2023-02-19T00:05:30.249Z,13.73
2023-02-19T00:08:33.015Z,13.47
2023-02-19T00:11:35.702Z,15.13
2023-02-19T00:14:37.788Z,14.43
2023-02-19T00:17:39.554Z,14.67
2023-02-19T00:20:41.283Z,13.47
2023-02-19T00:23:43.201Z,14.37
2023-02-19T00:26:45.938Z,15.67
2023-02-19T00:29:47.985Z,14.50
2023-02-19T00:32:52.773Z,14.13
2023-02-19T00:35:54.532Z,13.53
2023-02-19T00:38:56.652Z,14.67
2023-02-19T00:42:00.768Z,15.13
2023-02-19T00:45:02.583Z,14.73
2023-02-19T00:48:04.420Z,14.63
2023-02-19T00:51:06.680Z,15.13
2023-02-19T00:54:08.435Z,15.83
2023-02-19T00:57:10.195Z,13.97
2023-02-19T01:00:12.725Z,14.90
2023-02-19T01:03:14.608Z,15.47
2023-02-19T01:06:19.294Z,13.83
2023-02-19T01:09:21.181Z,14.10
2023-02-19T01:12:24.237Z,12.83
2023-02-19T01:15:25.929Z,12.53
2023-02-19T01:18:27.656Z,14.37
2023-02-19T01:21:30.747Z,13.73
2023-02-19T01:24:32.403Z,13.73
2023-02-19T01:27:34.268Z,13.13
2023-02-19T01:30:37.080Z,12.93
2023-02-19T01:33:38.743Z,15.23
2023-02-19T01:36:40.893Z,14.37
2023-02-19T01:39:42.912Z,13.63
2023-02-19T01:42:44.893Z,14.10
2023-02-19T01:45:46.965Z,12.37
2023-02-19T01:48:48.621Z,11.03
2023-02-19T01:52:01.431Z,11.77
2023-02-19T01:55:07.305Z,11.10
2023-02-19T01:58:09.821Z,10.87
2023-02-19T02:01:13.641Z,10.70
2023-02-19T02:04:17.370Z,9.43
2023-02-19T02:07:37.764Z,9.10
2023-02-19T02:10:39.495Z,10.37
2023-02-19T02:13:41.533Z,9.93
2023-02-19T02:17:09.152Z,9.90
2023-02-19T02:20:32.303Z,9.90
2023-02-19T02:24:06.554Z,9.60
2023-02-19T02:27:11.459Z,10.13
2023-02-19T02:30:16.257Z,10.03
2023-02-19T02:33:31.482Z,9.23
2023-02-19T02:36:39.038Z,9.00
2023-02-19T02:39:42.062Z,8.07
2023-02-19T02:42:44.660Z,7.77
2023-02-19T02:45:48.409Z,6.53
2023-02-19T02:49:06.418Z,6.20
2023-02-19T02:52:31.345Z,6.93
2023-02-19T02:55:38.468Z,5.93
2023-02-19T02:58:40.700Z,5.43
2023-02-19T03:02:12.466Z,8.87
2023-02-19T03:05:41.297Z,8.43
2023-02-19T03:08:55.758Z,11.17
2023-02-19T03:12:20.926Z,10.80
2023-02-19T03:15:47.600Z,11.90
2023-02-19T03:19:12.548Z,13.20
2023-02-19T03:22:19.904Z,12.97
2023-02-19T03:25:48.836Z,13.47
2023-02-19T03:29:16.790Z,14.47
2023-02-19T03:32:35.776Z,13.43
2023-02-19T03:35:46.754Z,13.83
2023-02-19T03:39:05.306Z,12.40
2023-02-19T03:42:35.195Z,13.17
2023-02-19T03:45:56.376Z,13.00
2023-02-19T03:49:37.461Z,13.23
2023-02-19T03:52:41.872Z,12.13
2023-02-19T03:56:03.857Z,12.77
2023-02-19T03:59:54.528Z,13.90
2023-02-19T04:03:11.396Z,14.27
2023-02-19T04:06:17.294Z,13.67
2023-02-19T04:09:21.986Z,14.47
2023-02-19T04:12:30.736Z,16.03
2023-02-19T04:15:34.493Z,12.53
2023-02-19T04:18:44.038Z,10.17
2023-02-19T04:21:47.433Z,10.40
2023-02-19T04:24:51.987Z,10.67
2023-02-19T04:27:54.436Z,12.37
2023-02-19T04:30:56.276Z,12.20
2023-02-19T04:33:58.100Z,10.73
2023-02-19T04:36:59.923Z,12.00
2023-02-19T04:40:01.676Z,11.37
2023-02-19T04:43:03.531Z,11.83
2023-02-19T04:46:05.530Z,9.83
2023-02-19T04:49:07.467Z,9.83
2023-02-19T04:52:09.445Z,9.50
2023-02-19T04:55:11.278Z,9.93
2023-02-19T04:58:13.105Z,9.13
2023-02-19T05:01:15.202Z,8.57
2023-02-19T05:04:17.052Z,9.83
2023-02-19T05:07:18.948Z,10.13
2023-02-19T05:10:20.772Z,9.87
2023-02-19T05:13:22.564Z,9.37
2023-02-19T05:23:21.899Z,7.97
2023-02-19T05:26:26.813Z,9.03
2023-02-19T05:29:30.796Z,7.07
2023-02-19T05:32:35.328Z,8.00
2023-02-19T05:35:42.018Z,7.93
2023-02-19T05:38:59.043Z,8.40
2023-02-19T05:42:13.894Z,8.50
2023-02-19T05:45:15.728Z,8.47
2023-02-19T05:48:17.623Z,8.10
2023-02-19T05:51:22.164Z,7.27
2023-02-19T05:54:28.039Z,6.90
2023-02-19T05:57:30.243Z,7.70
2023-02-19T06:00:34.419Z,7.33
2023-02-19T06:03:36.426Z,7.70
2023-02-19T06:06:39.756Z,6.83
2023-02-19T06:09:42.094Z,8.17
2023-02-19T06:12:45.184Z,7.17
2023-02-19T06:15:58.099Z,7.97
2023-02-19T06:19:06.372Z,8.03
2023-02-19T06:22:08.797Z,8.00
2023-02-19T06:25:13.436Z,7.30
2023-02-19T06:28:17.725Z,7.63
2023-02-19T06:31:22.226Z,6.27
2023-02-19T06:34:27.233Z,7.10
2023-02-19T06:37:29.789Z,6.03
2023-02-19T06:40:32.197Z,7.33
2023-02-19T06:43:37.709Z,6.87
2023-02-19T06:46:39.991Z,6.80
2023-02-19T06:49:42.222Z,6.77
2023-02-19T06:52:47.062Z,6.40
2023-02-19T06:56:03.456Z,5.50
2023-02-19T06:59:09.455Z,5.27
2023-02-19T07:02:12.805Z,5.43
2023-02-19T07:05:17.712Z,5.90
2023-02-19T07:08:20.145Z,6.50
2023-02-19T07:11:28.241Z,10.17
2023-02-19T07:14:30.329Z,6.73
2023-02-19T07:17:35.722Z,6.30
2023-02-19T07:20:40.274Z,6.87
2023-02-19T07:23:43.705Z,6.00
2023-02-19T07:26:45.913Z,5.90
2023-02-19T07:29:49.380Z,5.70
2023-02-19T07:32:51.435Z,5.17
2023-02-19T07:35:57.133Z,5.60
2023-02-19T07:39:00.029Z,6.77
2023-02-19T07:42:07.711Z,5.90
2023-02-19T07:45:18.483Z,5.10
2023-02-19T07:48:26.939Z,5.23
2023-02-19T07:51:42.306Z,4.50
2023-02-19T07:54:45.815Z,5.57
2023-02-19T08:09:40.658Z,5.33
2023-02-19T08:13:15.726Z,5.43
2023-02-19T08:16:43.028Z,6.20
2023-02-19T08:19:48.584Z,4.67
2023-02-19T08:23:09.572Z,4.53
2023-02-19T08:26:22.551Z,5.10
2023-02-19T08:29:34.088Z,4.70
2023-02-19T08:32:44.888Z,6.00
2023-02-19T08:35:55.517Z,4.73
2023-02-19T08:39:11.898Z,4.60
2023-02-19T08:42:29.375Z,3.30
2023-02-19T08:45:57.067Z,3.63
2023-02-19T08:49:02.638Z,3.90
2023-02-19T08:52:07.310Z,3.10
2023-02-19T08:55:14.276Z,3.60
2023-02-19T08:58:24.024Z,2.93
2023-02-19T09:01:41.913Z,3.37
2023-02-19T09:05:05.970Z,2.70
2023-02-19T09:08:08.782Z,3.23
2023-02-19T09:11:13.191Z,2.90
2023-02-19T09:14:18.574Z,2.53
2023-02-19T09:17:27.468Z,4.83
2023-02-19T09:20:30.167Z,3.43
2023-02-19T09:23:39.567Z,3.50
2023-02-19T09:26:41.608Z,3.43
2023-02-19T09:29:46.735Z,4.17
2023-02-19T09:32:57.759Z,3.83
2023-02-19T09:36:11.144Z,7.23
2023-02-19T09:39:15.903Z,3.37
2023-02-19T09:42:40.228Z,3.90
2023-02-19T09:46:14.799Z,6.43
2023-02-19T09:49:31.118Z,2.53
2023-02-19T09:52:46.381Z,2.90
2023-02-19T09:55:49.205Z,6.37
2023-02-19T09:58:58.638Z,4.87
2023-02-19T10:02:12.921Z,3.13
2023-02-19T10:05:18.900Z,1.73
2023-02-19T10:08:26.006Z,0.70
2023-02-19T10:11:34.397Z,0.70
2023-02-19T10:14:46.689Z,0.70
2023-02-19T10:17:57.186Z,0.80
2023-02-19T10:21:41.995Z,0.80
2023-02-19T10:24:47.393Z,0.77
2023-02-19T10:27:49.727Z,0.90
2023-02-19T10:30:55.609Z,1.00
2023-02-19T10:34:06.857Z,1.23
2023-02-19T10:37:17.744Z,1.53
2023-02-19T10:40:26.958Z,0.97
2023-02-19T10:43:43.197Z,1.47
2023-02-19T10:46:58.579Z,1.37
2023-02-19T10:50:15.490Z,1.10
2023-02-19T10:53:44.922Z,1.00
2023-02-19T10:56:55.042Z,0.97
2023-02-19T11:00:27.442Z,1.20
2023-02-19T11:03:33.141Z,0.93
2023-02-19T11:06:45.737Z,1.20
2023-02-19T11:09:53.938Z,1.60
2023-02-19T11:13:05.154Z,1.80
2023-02-19T11:16:10.282Z,1.40
2023-02-19T11:19:56.158Z,1.17
2023-02-19T11:23:09.530Z,1.00
2023-02-19T11:26:23.290Z,1.10
2023-02-19T11:29:35.112Z,1.40
2023-02-19T11:32:39.104Z,1.43
2023-02-19T11:35:41.338Z,0.90
2023-02-19T11:38:46.313Z,1.40
2023-02-19T11:42:27.187Z,1.60
2023-02-19T11:45:52.638Z,1.47
2023-02-19T11:49:13.646Z,1.43
2023-02-19T11:53:03.462Z,1.30
2023-02-19T11:56:12.339Z,1.10
2023-02-19T11:59:35.314Z,1.53
2023-02-19T12:02:49.721Z,1.60
2023-02-19T12:06:43.817Z,1.40
2023-02-19T12:10:06.448Z,1.23
2023-02-19T12:13:45.738Z,1.33
2023-02-19T12:17:02.532Z,1.73
2023-02-19T12:20:30.802Z,1.47
2023-02-19T12:23:43.385Z,1.13
2023-02-19T12:27:21.721Z,1.00
2023-02-19T12:30:39.422Z,1.03
2023-02-19T12:34:12.000Z,0.80
2023-02-19T12:37:49.077Z,1.00
2023-02-19T12:41:38.184Z,1.03
2023-02-19T12:45:16.141Z,0.83
2023-02-19T12:48:42.543Z,0.87
2023-02-19T12:51:49.622Z,0.80
2023-02-19T12:54:56.009Z,1.20
2023-02-19T12:58:02.138Z,1.03
2023-02-19T13:01:05.566Z,1.07
2023-02-19T13:04:37.018Z,1.00
2023-02-19T13:07:59.307Z,0.70
2023-02-19T13:11:06.543Z,1.20
2023-02-19T13:14:30.974Z,1.00
2023-02-19T13:17:48.066Z,1.50
2023-02-19T13:20:51.850Z,1.30
2023-02-19T13:23:59.467Z,1.13
2023-02-19T13:27:04.388Z,1.97
2023-02-19T13:30:41.251Z,1.83
2023-02-19T13:33:58.525Z,1.40
2023-02-19T13:37:01.419Z,1.70
2023-02-19T13:40:37.421Z,1.63
2023-02-19T13:43:42.876Z,2.13
2023-02-19T13:46:46.539Z,1.50
2023-02-19T13:49:52.264Z,1.57
2023-02-19T13:52:55.856Z,1.60
2023-02-19T13:55:57.674Z,1.43
2023-02-19T13:59:12.826Z,2.53
2023-02-19T14:02:20.760Z,1.40
2023-02-19T14:05:59.377Z,1.37
2023-02-19T14:09:01.517Z,2.00
2023-02-19T14:12:16.261Z,2.80
2023-02-19T14:15:43.877Z,2.10
2023-02-19T14:18:46.882Z,1.80
2023-02-19T14:21:48.727Z,1.70
2023-02-19T14:24:53.813Z,2.73
2023-02-19T14:28:30.176Z,3.13
2023-02-19T14:31:37.813Z,1.53
2023-02-19T14:34:39.766Z,1.80
2023-02-19T14:37:44.760Z,7.27
2023-02-19T14:40:47.976Z,12.77
2023-02-19T14:43:52.976Z,3.03
2023-02-19T14:47:04.557Z,2.90
2023-02-19T14:50:14.360Z,2.70
2023-02-19T14:53:17.851Z,2.33
2023-02-19T14:56:34.530Z,2.27
2023-02-19T14:59:36.349Z,4.60
2023-02-19T15:02:43.120Z,4.00
2023-02-19T15:05:45.342Z,3.10
2023-02-19T15:08:50.123Z,2.13
2023-02-19T15:11:53.391Z,3.77
2023-02-19T15:14:59.712Z,2.40
2023-02-19T15:18:03.524Z,2.10
2023-02-19T15:21:06.800Z,2.40
2023-02-19T15:24:08.952Z,1.90
2023-02-19T15:27:20.469Z,2.03
2023-02-19T15:30:29.644Z,2.10
2023-02-19T15:33:31.666Z,5.20
2023-02-19T15:36:34.746Z,2.63
2023-02-19T15:39:48.376Z,2.37
2023-02-19T15:42:50.240Z,3.50
2023-02-19T15:46:17.725Z,7.13
2023-02-19T15:49:31.137Z,3.43
2023-02-19T15:53:07.385Z,5.00
2023-02-19T15:56:21.774Z,4.80
2023-02-19T15:59:38.623Z,2.80
2023-02-19T16:02:40.673Z,3.50
2023-02-19T16:05:42.864Z,3.20
2023-02-19T16:08:46.983Z,3.47
2023-02-19T16:11:54.428Z,4.90
2023-02-19T16:14:58.903Z,3.93
2023-02-19T16:18:01.556Z,2.97
2023-02-19T16:21:10.230Z,2.97
2023-02-19T16:24:32.453Z,2.70
2023-02-19T16:27:36.964Z,2.40
2023-02-19T16:30:39.162Z,3.70
2023-02-19T16:33:48.761Z,3.53
2023-02-19T16:36:50.760Z,3.10
2023-02-19T16:40:07.791Z,3.77
2023-02-19T16:43:15.399Z,2.93
2023-02-19T16:46:20.559Z,2.93
2023-02-19T16:49:24.018Z,2.53
2023-02-19T16:52:32.036Z,1.87
2023-02-19T16:55:50.077Z,2.03
2023-02-19T16:58:52.177Z,1.70
2023-02-19T17:01:54.441Z,1.50
2023-02-19T17:04:56.627Z,2.00
2023-02-19T17:08:00.800Z,1.77
2023-02-19T17:11:10.480Z,2.10
2023-02-19T17:14:12.602Z,2.50
2023-02-19T17:17:14.527Z,1.80
2023-02-19T17:20:16.299Z,1.70
2023-02-19T17:23:18.281Z,2.13
2023-02-19T17:26:23.359Z,2.13
2023-02-19T17:29:26.545Z,2.30
2023-02-19T17:32:31.113Z,2.80
2023-02-19T17:35:33.052Z,1.63
2023-02-19T17:38:34.885Z,2.80
2023-02-19T17:41:39.775Z,3.07
2023-02-19T17:44:41.680Z,3.00
2023-02-19T17:47:44.768Z,2.60
2023-02-19T17:50:49.410Z,1.57
2023-02-19T17:53:55.281Z,3.90
2023-02-19T17:57:00.593Z,2.43
2023-02-19T18:00:05.823Z,3.40
2023-02-19T18:03:14.703Z,3.33
2023-02-19T18:06:25.224Z,2.43
2023-02-19T18:09:30.599Z,3.60
2023-02-19T18:12:32.820Z,2.37
2023-02-19T18:15:43.834Z,5.87
2023-02-19T18:19:12.294Z,8.00
2023-02-19T18:22:31.979Z,2.50
2023-02-19T18:25:34.185Z,2.77
2023-02-19T18:28:37.897Z,3.00
2023-02-19T18:31:42.853Z,2.17
2023-02-19T18:34:52.687Z,2.47
2023-02-19T18:37:57.301Z,4.10
2023-02-19T18:41:00.424Z,3.13
2023-02-19T18:44:03.737Z,3.00
2023-02-19T18:47:08.236Z,5.67
2023-02-19T18:50:15.105Z,3.17
2023-02-19T18:53:24.631Z,2.80
2023-02-19T18:56:30.594Z,3.63
2023-02-19T18:59:35.086Z,2.50
2023-02-19T19:06:03.050Z,2.20
2023-02-19T19:09:15.660Z,2.87
2023-02-19T19:12:20.864Z,3.53
2023-02-19T19:15:26.444Z,2.37
2023-02-19T19:18:28.704Z,2.27
2023-02-19T19:21:34.081Z,2.50
2023-02-19T19:24:37.504Z,2.23
2023-02-19T19:27:48.786Z,2.20
2023-02-19T19:30:55.337Z,2.50
2023-02-19T19:34:05.323Z,3.30
2023-02-19T19:37:10.987Z,2.20
2023-02-19T19:40:13.943Z,1.70
2023-02-19T19:43:32.884Z,1.80
2023-02-19T19:46:38.391Z,2.87
2023-02-19T19:49:58.132Z,5.13
2023-02-19T19:53:11.914Z,2.23
2023-02-19T19:56:17.784Z,2.47
2023-02-19T19:59:20.108Z,2.07
2023-02-19T20:02:25.067Z,2.70
2023-02-19T20:05:33.015Z,2.30
2023-02-19T20:08:35.148Z,3.87
2023-02-19T20:11:44.612Z,3.17
2023-02-19T20:14:52.881Z,2.70
2023-02-19T20:18:03.128Z,2.50
2023-02-19T20:21:07.888Z,2.53
2023-02-19T20:24:13.121Z,3.03
2023-02-19T20:27:16.476Z,3.40
2023-02-19T20:30:24.057Z,3.50
2023-02-19T20:33:26.602Z,3.63
2023-02-19T20:36:32.528Z,3.03
2023-02-19T20:39:40.639Z,3.57
2023-02-19T20:42:43.234Z,3.60
2023-02-19T20:45:48.575Z,3.70
2023-02-19T20:48:51.928Z,4.10
2023-02-19T20:52:00.100Z,5.47
2023-02-19T20:55:07.639Z,3.53
2023-02-19T20:58:12.760Z,4.10
2023-02-19T21:01:15.073Z,3.67
2023-02-19T21:04:19.138Z,4.33
2023-02-19T21:07:27.606Z,5.50
2023-02-19T21:10:29.732Z,4.67
2023-02-19T21:13:32.048Z,4.67
2023-02-19T21:16:37.189Z,4.83
2023-02-19T21:19:40.415Z,4.70
2023-02-19T21:22:56.020Z,4.50
2023-02-19T21:26:05.216Z,4.33
2023-02-19T21:29:19.230Z,5.30
2023-02-19T21:32:22.670Z,5.83
2023-02-19T21:35:24.948Z,5.60
2023-02-19T21:38:27.210Z,5.17
2023-02-19T21:41:29.577Z,7.00
2023-02-19T21:44:31.733Z,5.23
2023-02-19T21:47:33.902Z,6.03
2023-02-19T21:50:35.927Z,6.57
2023-02-19T21:53:38.370Z,5.30
2023-02-19T21:56:40.393Z,5.67
2023-02-19T21:59:42.346Z,5.53
2023-02-19T22:02:44.251Z,4.60
2023-02-19T22:05:48.864Z,5.50
2023-02-19T22:08:50.684Z,5.23
2023-02-19T22:11:52.489Z,4.87
2023-02-19T22:14:54.405Z,5.63
2023-02-19T22:17:56.337Z,5.97
2023-02-19T22:20:58.594Z,6.67
2023-02-19T22:24:02.349Z,4.97
2023-02-19T22:27:04.460Z,5.63
2023-02-19T22:30:07.341Z,6.30
2023-02-19T22:33:09.975Z,5.10
2023-02-19T22:36:20.766Z,5.67
2023-02-19T22:39:29.535Z,6.63
2023-02-19T22:42:31.488Z,5.93
2023-02-19T22:45:33.454Z,6.17
2023-02-19T22:48:36.358Z,6.93
2023-02-19T22:51:38.298Z,8.33
2023-02-19T22:54:40.377Z,9.27
2023-02-19T22:57:42.366Z,7.37
2023-02-19T23:00:44.233Z,7.30
2023-02-19T23:03:45.923Z,6.57
2023-02-19T23:06:47.685Z,6.23
2023-02-19T23:09:49.475Z,5.90
2023-02-19T23:12:51.176Z,6.33
2023-02-19T23:15:52.917Z,5.33
2023-02-19T23:18:55.462Z,5.60
2023-02-19T23:21:57.251Z,5.50
2023-02-19T23:24:58.971Z,5.13
2023-02-19T23:28:00.773Z,6.20
2023-02-19T23:31:02.724Z,5.40
2023-02-19T23:34:04.492Z,5.57
2023-02-19T23:37:06.609Z,6.00
2023-02-19T23:40:08.814Z,4.97
2023-02-19T23:43:10.606Z,5.70
2023-02-19T23:46:17.796Z,5.27
2023-02-19T23:49:19.998Z,5.20
2023-02-19T23:52:21.717Z,4.97
2023-02-19T23:55:23.473Z,5.93
2023-02-19T23:58:25.343Z,5.53
